createdAt,value
2023-03-18T00:01:42.442Z,7.10
2023-03-18T00:04:13.199Z,7.13
2023-03-18T00:06:41.720Z,7.53
2023-03-18T00:09:12.350Z,7.45
2023-03-18T00:11:41.783Z,7.97
2023-03-18T00:14:11.158Z,7.32
2023-03-18T00:16:40.008Z,6.82
2023-03-18T00:19:08.488Z,7.60
2023-03-18T00:21:38.557Z,7.47
2023-03-18T00:24:07.203Z,7.40
2023-03-18T00:26:36.412Z,7.53
2023-03-18T00:29:05.042Z,7.47
2023-03-18T00:31:33.732Z,6.97
2023-03-18T00:34:02.160Z,8.05
2023-03-18T00:36:31.075Z,7.18
2023-03-18T00:39:03.526Z,6.95
2023-03-18T00:41:36.446Z,6.85
2023-03-18T00:44:06.211Z,7.03
2023-03-18T00:46:35.806Z,7.25
2023-03-18T00:49:06.476Z,7.28
2023-03-18T00:51:36.349Z,7.13
2023-03-18T00:54:09.952Z,7.32
2023-03-18T00:56:38.967Z,7.55
2023-03-18T00:59:08.069Z,7.82
2023-03-18T01:01:37.178Z,6.80
2023-03-18T01:04:06.197Z,7.25
2023-03-18T01:06:37.380Z,7.25
2023-03-18T01:09:06.716Z,7.55
2023-03-18T01:11:36.625Z,7.45
2023-03-18T01:14:05.086Z,6.85
2023-03-18T01:16:33.950Z,6.82
2023-03-18T01:19:02.464Z,7.45
2023-03-18T01:21:32.029Z,7.05
2023-03-18T01:24:04.399Z,7.07
2023-03-18T01:26:33.224Z,7.45
2023-03-18T01:29:03.922Z,7.00
2023-03-18T01:31:34.571Z,7.10
2023-03-18T01:34:07.827Z,7.22
2023-03-18T01:36:46.278Z,6.03
2023-03-18T01:39:15.460Z,6.78
2023-03-18T01:41:44.699Z,7.72
2023-03-18T01:44:20.696Z,6.65
2023-03-18T01:46:52.320Z,7.03
2023-03-18T01:49:24.427Z,6.65
2023-03-18T01:51:56.466Z,6.80
2023-03-18T01:54:27.741Z,7.07
2023-03-18T01:56:56.740Z,6.50
2023-03-18T01:59:28.670Z,6.70
2023-03-18T02:02:01.596Z,7.20
2023-03-18T02:04:33.957Z,7.03
2023-03-18T02:07:02.692Z,7.10
2023-03-18T02:09:31.271Z,6.72
2023-03-18T02:12:03.142Z,7.65
2023-03-18T02:14:33.984Z,6.95
2023-03-18T02:17:03.867Z,6.28
2023-03-18T02:19:41.616Z,7.07
2023-03-18T02:22:16.172Z,6.47
2023-03-18T02:24:48.572Z,6.82
2023-03-18T02:27:21.577Z,7.07
2023-03-18T02:29:50.950Z,6.50
2023-03-18T02:32:22.920Z,7.20
2023-03-18T02:34:51.698Z,6.68
2023-03-18T02:37:20.349Z,6.25
2023-03-18T02:39:49.177Z,6.60
2023-03-18T02:42:18.276Z,6.85
2023-03-18T02:44:53.590Z,6.18
2023-03-18T02:47:34.329Z,7.25
2023-03-18T02:50:04.635Z,6.88
2023-03-18T02:52:33.095Z,6.65
2023-03-18T02:55:01.895Z,6.25
2023-03-18T02:57:31.839Z,6.55
2023-03-18T03:00:01.734Z,6.75
2023-03-18T03:02:31.139Z,6.60
2023-03-18T03:04:59.872Z,7.10
2023-03-18T03:07:28.862Z,6.40
2023-03-18T03:10:03.068Z,6.63
2023-03-18T03:12:32.199Z,6.65
2023-03-18T03:15:02.972Z,6.93
2023-03-18T03:17:33.646Z,7.00
2023-03-18T03:20:03.547Z,7.75
2023-03-18T03:22:32.060Z,7.05
2023-03-18T03:25:01.134Z,6.90
2023-03-18T03:27:29.690Z,7.03
2023-03-18T03:29:58.269Z,7.03
2023-03-18T03:32:29.008Z,7.82
2023-03-18T03:34:57.514Z,7.50
2023-03-18T03:37:26.034Z,6.80
2023-03-18T03:39:55.819Z,7.20
2023-03-18T03:42:25.425Z,6.78
2023-03-18T03:44:53.979Z,6.95
2023-03-18T03:47:22.588Z,6.50
2023-03-18T03:49:53.456Z,7.35
2023-03-18T03:52:23.105Z,7.75
2023-03-18T03:54:52.482Z,6.55
2023-03-18T03:57:21.172Z,6.45
2023-03-18T03:59:49.805Z,7.35
2023-03-18T04:02:23.792Z,7.63
2023-03-18T04:04:54.024Z,6.97
2023-03-18T04:07:29.894Z,7.20
2023-03-18T04:09:58.468Z,7.10
2023-03-18T04:12:26.955Z,7.00
2023-03-18T04:15:00.146Z,6.63
2023-03-18T04:17:29.336Z,6.70
2023-03-18T04:20:01.558Z,7.13
2023-03-18T04:22:34.159Z,7.32
2023-03-18T04:25:13.922Z,7.35
2023-03-18T04:27:43.350Z,7.20
2023-03-18T04:30:15.016Z,7.00
2023-03-18T04:32:57.382Z,6.80
2023-03-18T04:35:28.154Z,7.45
2023-03-18T04:37:57.430Z,6.95
2023-03-18T04:40:29.228Z,7.35
2023-03-18T04:42:58.201Z,7.47
2023-03-18T04:45:29.530Z,8.00
2023-03-18T04:48:01.672Z,7.13
2023-03-18T04:50:35.701Z,7.32
2023-03-18T04:53:05.352Z,7.25
2023-03-18T04:55:35.246Z,7.22
2023-03-18T04:58:05.745Z,7.03
2023-03-18T05:00:40.630Z,8.02
2023-03-18T05:03:23.608Z,7.85
2023-03-18T05:05:53.419Z,6.75
2023-03-18T05:08:28.054Z,7.40
2023-03-18T05:10:56.948Z,7.55
2023-03-18T05:13:25.545Z,7.40
2023-03-18T05:15:55.000Z,7.70
2023-03-18T05:18:23.785Z,7.10
2023-03-18T05:20:55.816Z,7.45
2023-03-18T05:23:27.048Z,7.70
2023-03-18T05:25:57.753Z,7.80
2023-03-18T05:28:28.571Z,8.38
2023-03-18T05:31:12.214Z,6.72
2023-03-18T05:33:43.094Z,7.68
2023-03-18T05:36:15.799Z,7.93
2023-03-18T05:38:56.019Z,7.53
2023-03-18T05:41:25.755Z,8.00
2023-03-18T05:43:54.992Z,7.70
2023-03-18T05:46:23.900Z,7.55
2023-03-18T05:49:04.577Z,7.35
2023-03-18T05:51:44.821Z,7.85
2023-03-18T05:54:18.167Z,7.55
2023-03-18T05:56:47.127Z,7.75
2023-03-18T05:59:17.393Z,7.32
2023-03-18T06:01:49.064Z,8.27
2023-03-18T06:04:19.370Z,7.90
2023-03-18T06:06:49.748Z,8.30
2023-03-18T06:09:19.027Z,7.90
2023-03-18T06:11:48.266Z,8.35
2023-03-18T06:14:19.471Z,7.72
2023-03-18T06:16:48.200Z,8.98
2023-03-18T06:19:16.737Z,8.23
2023-03-18T06:21:45.145Z,7.75
2023-03-18T06:24:16.060Z,7.63
2023-03-18T06:26:44.643Z,8.10
2023-03-18T06:29:13.299Z,8.73
2023-03-18T06:31:41.755Z,7.90
2023-03-18T06:34:13.014Z,8.77
2023-03-18T06:36:42.125Z,8.52
2023-03-18T06:39:18.012Z,7.95
2023-03-18T06:41:48.581Z,8.77
2023-03-18T06:44:31.056Z,9.45
2023-03-18T06:47:07.193Z,9.20
2023-03-18T06:49:39.156Z,8.90
2023-03-18T06:52:14.167Z,9.20
2023-03-18T06:54:47.147Z,9.30
2023-03-18T06:57:17.902Z,10.50
2023-03-18T06:59:46.878Z,9.55
2023-03-18T07:02:16.420Z,10.02
2023-03-18T07:04:48.223Z,9.40
2023-03-18T07:07:16.978Z,10.05
2023-03-18T07:09:47.119Z,10.80
2023-03-18T07:12:16.499Z,9.45
2023-03-18T07:14:45.421Z,9.57
2023-03-18T07:17:14.433Z,8.95
2023-03-18T07:19:43.707Z,9.13
2023-03-18T07:22:12.473Z,10.32
2023-03-18T07:24:40.906Z,8.48
2023-03-18T07:27:10.864Z,8.32
2023-03-18T07:29:39.329Z,9.13
2023-03-18T07:32:08.188Z,8.50
2023-03-18T07:34:36.921Z,9.73
2023-03-18T07:37:05.384Z,10.15
2023-03-18T07:39:33.978Z,8.57
2023-03-18T07:42:02.922Z,9.38
2023-03-18T07:44:33.672Z,8.93
2023-03-18T07:47:02.354Z,8.23
2023-03-18T07:49:31.870Z,8.70
2023-03-18T07:52:00.537Z,9.25
2023-03-18T07:54:29.024Z,8.02
2023-03-18T07:56:58.986Z,9.20
2023-03-18T07:59:27.636Z,8.82
2023-03-18T08:01:58.239Z,9.25
2023-03-18T08:04:26.835Z,8.35
2023-03-18T08:06:55.413Z,8.30
2023-03-18T08:09:23.927Z,7.60
2023-03-18T08:11:52.644Z,8.80
2023-03-18T08:14:21.261Z,9.13
2023-03-18T08:16:49.778Z,8.65
2023-03-18T08:19:19.947Z,9.52
2023-03-18T08:21:49.734Z,8.93
2023-03-18T08:24:18.909Z,10.00
2023-03-18T08:26:47.362Z,9.07
2023-03-18T08:29:15.838Z,8.77
2023-03-18T08:31:44.579Z,9.00
2023-03-18T08:34:14.155Z,8.80
2023-03-18T08:36:45.202Z,8.88
2023-03-18T08:39:14.524Z,8.27
2023-03-18T08:41:45.694Z,9.95
2023-03-18T08:44:14.245Z,10.55
2023-03-18T08:46:45.794Z,7.88
2023-03-18T08:49:15.091Z,7.55
2023-03-18T08:51:45.044Z,7.38
2023-03-18T08:54:13.555Z,7.47
2023-03-18T08:56:42.521Z,7.60
2023-03-18T08:59:11.127Z,8.18
2023-03-18T09:01:39.964Z,8.02
2023-03-18T09:04:09.626Z,8.70
2023-03-18T09:06:38.040Z,8.27
2023-03-18T09:09:08.126Z,8.25
2023-03-18T09:11:37.344Z,10.25
2023-03-18T09:14:08.214Z,8.07
2023-03-18T09:16:37.715Z,7.90
2023-03-18T09:19:06.278Z,8.98
2023-03-18T09:21:34.837Z,7.63
2023-03-18T09:24:07.031Z,7.90
2023-03-18T09:26:38.676Z,8.23
2023-03-18T09:29:07.364Z,8.30
2023-03-18T09:31:36.056Z,8.02
2023-03-18T09:34:04.551Z,7.38
2023-03-18T09:36:33.588Z,8.02
2023-03-18T09:39:02.136Z,7.50
2023-03-18T09:41:34.984Z,8.10
2023-03-18T09:46:41.529Z,9.07
2023-03-18T09:49:18.660Z,7.63
2023-03-18T09:51:52.282Z,8.40
2023-03-18T09:54:26.361Z,8.30
2023-03-18T09:56:55.460Z,8.10
2023-03-18T09:59:26.639Z,8.07
2023-03-18T10:01:57.466Z,7.50
2023-03-18T10:04:27.406Z,7.57
2023-03-18T10:07:00.095Z,7.55
2023-03-18T10:09:30.335Z,7.63
2023-03-18T10:12:02.101Z,7.43
2023-03-18T10:14:38.038Z,7.95
2023-03-18T10:17:14.030Z,7.70
2023-03-18T10:19:44.850Z,7.22
2023-03-18T10:22:21.292Z,8.48
2023-03-18T10:24:52.840Z,7.70
2023-03-18T10:27:24.357Z,8.23
2023-03-18T10:29:56.183Z,8.05
2023-03-18T10:32:48.618Z,7.00
2023-03-18T10:35:26.271Z,7.53
2023-03-18T10:37:57.555Z,7.03
2023-03-18T10:40:27.131Z,7.38
2023-03-18T10:42:56.573Z,7.53
2023-03-18T10:45:26.368Z,7.30
2023-03-18T10:47:59.345Z,7.07
2023-03-18T10:50:32.461Z,7.93
2023-03-18T10:53:05.233Z,7.10
2023-03-18T10:55:36.924Z,7.20
2023-03-18T10:58:15.917Z,8.18
2023-03-18T11:00:45.466Z,8.13
2023-03-18T11:03:22.484Z,7.00
2023-03-18T11:05:52.700Z,6.88
2023-03-18T11:08:39.878Z,8.13
2023-03-18T11:11:25.256Z,7.63
2023-03-18T11:13:55.878Z,6.85
2023-03-18T11:16:29.249Z,7.65
2023-03-18T11:18:59.716Z,7.03
2023-03-18T11:21:29.993Z,7.53
2023-03-18T11:24:10.362Z,6.57
2023-03-18T11:26:47.094Z,6.65
2023-03-18T11:29:19.542Z,7.43
2023-03-18T11:31:50.906Z,5.80
2023-03-18T11:34:21.126Z,6.00
2023-03-18T11:36:58.936Z,6.63
2023-03-18T11:39:28.755Z,5.97
2023-03-18T11:41:57.216Z,6.85
2023-03-18T11:44:31.057Z,5.88
2023-03-18T11:47:02.950Z,7.20
2023-03-18T11:49:33.131Z,6.53
2023-03-18T11:52:09.903Z,7.03
2023-03-18T11:54:49.022Z,7.57
2023-03-18T11:57:19.484Z,6.50
2023-03-18T11:59:58.519Z,6.45
2023-03-18T12:02:37.925Z,7.15
2023-03-18T12:05:23.463Z,7.45
2023-03-18T12:07:58.698Z,6.28
2023-03-18T12:10:30.094Z,7.13
2023-03-18T12:13:14.764Z,6.60
2023-03-18T12:15:48.762Z,5.88
2023-03-18T12:18:35.184Z,8.25
2023-03-18T12:21:11.953Z,6.90
2023-03-18T12:23:52.024Z,5.88
2023-03-18T12:26:23.313Z,6.63
2023-03-18T12:29:04.149Z,6.47
2023-03-18T12:31:41.710Z,5.85
2023-03-18T12:34:17.383Z,5.68
2023-03-18T12:36:55.949Z,6.10
2023-03-18T12:39:52.229Z,6.13
2023-03-18T12:42:25.193Z,5.68
2023-03-18T12:45:01.977Z,5.57
2023-03-18T12:47:36.881Z,6.32
2023-03-18T12:50:08.885Z,7.20
2023-03-18T12:52:41.158Z,6.88
2023-03-18T12:55:14.795Z,6.80
2023-03-18T12:57:47.583Z,5.82
2023-03-18T13:00:23.665Z,6.90
2023-03-18T13:03:06.910Z,6.78
2023-03-18T13:05:42.779Z,5.50
2023-03-18T13:08:32.684Z,7.53
2023-03-18T13:11:06.006Z,7.13
2023-03-18T13:13:36.769Z,5.97
2023-03-18T13:16:06.696Z,5.70
2023-03-18T13:18:38.016Z,6.13
2023-03-18T13:21:07.750Z,6.95
2023-03-18T13:23:51.094Z,5.88
2023-03-18T13:26:23.496Z,5.65
2023-03-18T13:28:58.876Z,7.40
2023-03-18T13:31:33.015Z,5.50
2023-03-18T13:34:09.594Z,5.30
2023-03-18T13:36:55.563Z,5.60
2023-03-18T13:39:30.782Z,7.20
2023-03-18T13:42:09.109Z,5.38
2023-03-18T13:44:41.775Z,5.65
2023-03-18T13:47:10.750Z,6.03
2023-03-18T13:49:41.218Z,5.95
2023-03-18T13:52:23.058Z,6.10
2023-03-18T13:54:51.757Z,6.53
2023-03-18T13:57:34.696Z,6.40
2023-03-18T14:02:45.975Z,5.45
2023-03-18T14:05:33.242Z,5.90
2023-03-18T14:08:05.223Z,7.70
2023-03-18T14:10:33.851Z,7.10
2023-03-18T14:13:27.446Z,6.32
2023-03-18T14:15:58.348Z,6.20
2023-03-18T14:18:28.584Z,5.72
2023-03-18T14:21:02.708Z,6.18
2023-03-18T14:23:37.012Z,6.60
2023-03-18T14:26:07.809Z,6.18
2023-03-18T14:28:49.045Z,6.97
2023-03-18T14:31:22.020Z,6.20
2023-03-18T14:34:01.931Z,7.03
2023-03-18T14:36:46.605Z,5.88
2023-03-18T14:39:18.386Z,7.78
2023-03-18T14:41:48.691Z,5.60
2023-03-18T14:44:21.869Z,6.18
2023-03-18T14:46:52.653Z,7.05
2023-03-18T14:49:35.462Z,7.35
2023-03-18T14:52:05.690Z,6.28
2023-03-18T14:54:37.567Z,6.03
2023-03-18T14:57:06.257Z,7.83
2023-03-18T14:59:36.112Z,8.07
2023-03-18T15:02:07.343Z,8.20
2023-03-18T15:04:36.337Z,7.47
2023-03-18T15:07:07.256Z,6.47
2023-03-18T15:09:37.825Z,8.15
2023-03-18T15:12:18.910Z,7.40
2023-03-18T15:14:48.822Z,7.38
2023-03-18T15:17:18.055Z,6.90
2023-03-18T15:19:47.458Z,5.15
2023-03-18T15:22:21.047Z,5.65
2023-03-18T15:24:49.509Z,5.90
2023-03-18T15:27:21.997Z,7.15
2023-03-18T15:29:54.647Z,5.35
2023-03-18T15:32:26.540Z,5.68
2023-03-18T15:34:56.286Z,7.97
2023-03-18T15:37:34.872Z,7.45
2023-03-18T15:40:18.229Z,7.47
2023-03-18T15:42:47.639Z,7.07
2023-03-18T15:45:23.331Z,8.35
2023-03-18T15:47:52.108Z,6.78
2023-03-18T15:50:26.831Z,7.25
2023-03-18T15:53:09.574Z,6.88
2023-03-18T15:55:49.176Z,7.43
2023-03-18T15:58:21.423Z,9.43
2023-03-18T16:00:53.142Z,8.40
2023-03-18T16:03:23.958Z,8.52
2023-03-18T16:05:53.867Z,6.90
2023-03-18T16:08:23.148Z,5.60
2023-03-18T16:10:53.094Z,6.60
2023-03-18T16:13:24.609Z,6.82
2023-03-18T16:15:56.096Z,7.85
2023-03-18T16:18:24.753Z,6.80
2023-03-18T16:20:54.196Z,10.55
2023-03-18T16:23:23.147Z,6.20
2023-03-18T16:25:53.185Z,6.25
2023-03-18T16:28:22.725Z,8.32
2023-03-18T16:30:53.437Z,13.40
2023-03-18T16:33:26.052Z,10.32
2023-03-18T16:35:56.676Z,6.50
2023-03-18T16:38:25.570Z,7.47
2023-03-18T16:40:57.742Z,7.55
2023-03-18T16:43:29.782Z,6.68
2023-03-18T16:46:00.396Z,5.93
2023-03-18T16:48:30.745Z,7.40
2023-03-18T16:51:02.445Z,7.07
2023-03-18T16:53:32.160Z,7.83
2023-03-18T16:56:02.461Z,9.05
2023-03-18T16:58:33.027Z,10.10
2023-03-18T17:01:01.702Z,8.75
2023-03-18T17:03:34.636Z,8.70
2023-03-18T17:06:03.674Z,8.25
2023-03-18T17:08:32.445Z,7.75
2023-03-18T17:11:03.663Z,9.70
2023-03-18T17:13:33.124Z,8.27
2023-03-18T17:16:01.671Z,10.02
2023-03-18T17:18:33.385Z,11.63
2023-03-18T17:21:05.290Z,11.02
2023-03-18T17:23:34.326Z,11.23
2023-03-18T17:26:04.672Z,12.52
2023-03-18T17:28:35.449Z,12.05
2023-03-18T17:31:04.262Z,12.77
2023-03-18T17:33:33.760Z,12.38
2023-03-18T17:36:03.896Z,11.55
2023-03-18T17:38:35.713Z,11.57
2023-03-18T17:41:05.655Z,10.57
2023-03-18T17:43:35.646Z,12.07
2023-03-18T17:46:05.157Z,11.20
2023-03-18T17:48:34.979Z,12.68
2023-03-18T17:51:09.042Z,13.95
2023-03-18T17:53:40.801Z,12.82
2023-03-18T17:56:13.957Z,13.35
2023-03-18T17:58:44.329Z,13.55
2023-03-18T18:01:15.434Z,13.65
2023-03-18T18:03:45.057Z,14.20
2023-03-18T18:06:18.292Z,14.73
2023-03-18T18:08:47.410Z,15.27
2023-03-18T18:11:19.503Z,19.02
2023-03-18T18:13:48.677Z,16.83
2023-03-18T18:16:17.748Z,17.85
2023-03-18T18:18:49.071Z,16.98
2023-03-18T18:21:21.356Z,17.23
2023-03-18T18:23:50.049Z,19.75
2023-03-18T18:26:19.930Z,19.58
2023-03-18T18:28:58.123Z,20.33
2023-03-18T18:31:29.810Z,19.77
2023-03-18T18:33:58.223Z,19.60
2023-03-18T18:36:28.796Z,17.65
2023-03-18T18:38:57.695Z,15.98
2023-03-18T18:41:27.251Z,16.42
2023-03-18T18:43:56.594Z,17.42
2023-03-18T18:46:26.677Z,22.10
2023-03-18T18:48:55.885Z,20.15
2023-03-18T18:51:25.009Z,24.50
2023-03-18T18:53:56.273Z,21.55
2023-03-18T18:56:26.618Z,20.25
2023-03-18T18:58:55.936Z,19.23
2023-03-18T19:01:24.395Z,20.00
2023-03-18T19:03:53.662Z,20.67
2023-03-18T19:06:27.918Z,20.65
2023-03-18T19:08:58.449Z,18.15
2023-03-18T19:11:27.290Z,17.85
2023-03-18T19:14:14.276Z,18.25
2023-03-18T19:16:43.393Z,19.75
2023-03-18T19:19:15.016Z,19.25
2023-03-18T19:21:44.809Z,15.68
2023-03-18T19:24:31.027Z,15.63
2023-03-18T19:27:02.518Z,13.95
2023-03-18T19:29:32.555Z,13.38
2023-03-18T19:32:02.308Z,13.60
2023-03-18T19:34:34.003Z,15.23
2023-03-18T19:37:05.768Z,14.25
2023-03-18T19:39:34.431Z,12.93
2023-03-18T19:42:04.640Z,13.27
2023-03-18T19:44:33.174Z,13.45
2023-03-18T19:47:02.922Z,13.57
2023-03-18T19:49:35.070Z,14.38
2023-03-18T19:52:04.763Z,16.10
2023-03-18T19:54:34.937Z,16.70
2023-03-18T19:57:08.598Z,17.45
2023-03-18T19:59:39.675Z,17.77
2023-03-18T20:02:18.516Z,17.25
2023-03-18T20:04:49.462Z,16.00
2023-03-18T20:07:18.895Z,15.55
2023-03-18T20:09:50.400Z,14.63
2023-03-18T20:12:26.059Z,14.70
2023-03-18T20:14:58.046Z,15.23
2023-03-18T20:17:30.568Z,14.98
2023-03-18T20:19:59.413Z,15.38
2023-03-18T20:22:29.458Z,15.57
2023-03-18T20:24:58.277Z,14.63
2023-03-18T20:27:30.327Z,14.65
2023-03-18T20:29:59.473Z,15.60
2023-03-18T20:32:31.176Z,14.33
2023-03-18T20:35:03.395Z,13.25
2023-03-18T20:37:34.691Z,12.33
2023-03-18T20:40:04.064Z,12.40
2023-03-18T20:42:36.687Z,12.32
2023-03-18T20:45:06.527Z,14.75
2023-03-18T20:47:35.116Z,13.70
2023-03-18T20:50:04.549Z,12.18
2023-03-18T20:52:33.133Z,13.55
2023-03-18T20:55:02.079Z,13.32
2023-03-18T20:57:31.175Z,12.18
2023-03-18T21:00:01.229Z,13.18
2023-03-18T21:02:33.644Z,11.27
2023-03-18T21:05:03.121Z,12.60
2023-03-18T21:07:32.036Z,11.60
2023-03-18T21:10:01.009Z,12.02
2023-03-18T21:12:29.720Z,11.90
2023-03-18T21:14:58.228Z,11.35
2023-03-18T21:17:29.051Z,12.43
2023-03-18T21:20:07.918Z,11.60
2023-03-18T21:22:39.800Z,11.50
2023-03-18T21:25:09.246Z,12.07
2023-03-18T21:27:38.184Z,12.60
2023-03-18T21:30:09.594Z,12.57
2023-03-18T21:32:40.164Z,13.07
2023-03-18T21:35:09.719Z,14.35
2023-03-18T21:37:38.306Z,12.55
2023-03-18T21:40:07.869Z,12.82
2023-03-18T21:42:36.709Z,12.88
2023-03-18T21:45:05.539Z,15.00
2023-03-18T21:47:34.386Z,14.75
2023-03-18T21:50:04.403Z,13.75
2023-03-18T21:52:33.687Z,12.93
2023-03-18T21:55:03.610Z,12.55
2023-03-18T21:57:32.207Z,12.95
2023-03-18T22:00:00.818Z,13.38
2023-03-18T22:02:33.482Z,14.38
2023-03-18T22:05:03.010Z,12.95
2023-03-18T22:07:33.451Z,14.05
2023-03-18T22:10:01.986Z,14.10
2023-03-18T22:12:31.231Z,15.40
2023-03-18T22:15:00.110Z,15.40
2023-03-18T22:17:29.621Z,15.68
2023-03-18T22:19:58.820Z,14.80
2023-03-18T22:22:29.353Z,15.02
2023-03-18T22:24:59.370Z,14.63
2023-03-18T22:27:29.039Z,13.25
2023-03-18T22:29:58.180Z,14.27
2023-03-18T22:32:37.227Z,13.30
2023-03-18T22:35:06.349Z,13.43
2023-03-18T22:37:35.050Z,14.02
2023-03-18T22:40:05.587Z,13.18
2023-03-18T22:42:34.387Z,14.38
2023-03-18T22:45:03.285Z,13.00
2023-03-18T22:47:31.973Z,15.27
2023-03-18T22:50:00.937Z,18.05
2023-03-18T22:52:31.228Z,17.00
2023-03-18T22:55:00.556Z,17.33
2023-03-18T22:57:30.944Z,17.10
2023-03-18T22:59:59.387Z,15.90
2023-03-18T23:02:29.061Z,15.85
2023-03-18T23:04:57.680Z,16.98
2023-03-18T23:07:27.968Z,16.70
2023-03-18T23:09:57.390Z,15.15
2023-03-18T23:12:27.575Z,13.68
2023-03-18T23:14:58.280Z,14.27
2023-03-18T23:17:28.187Z,14.45
2023-03-18T23:19:56.795Z,15.00
2023-03-18T23:22:37.255Z,14.63
2023-03-18T23:25:06.991Z,13.38
2023-03-18T23:27:36.140Z,12.75
2023-03-18T23:30:06.900Z,14.10
2023-03-18T23:32:36.116Z,13.23
2023-03-18T23:35:04.903Z,13.20
2023-03-18T23:37:35.775Z,14.05
2023-03-18T23:40:05.290Z,13.43
2023-03-18T23:42:33.937Z,13.52
2023-03-18T23:45:04.033Z,12.90
2023-03-18T23:47:33.986Z,13.82
2023-03-18T23:50:02.764Z,12.52
2023-03-18T23:52:33.145Z,13.52
2023-03-18T23:55:01.988Z,12.88
2023-03-18T23:57:30.647Z,14.13
2023-03-18T23:59:59.494Z,12.77
